Time;durP1;ratioP1;P1;durP2;ratioP2;P2;SDS_P1;SDS_P2;PMS_P1;PMS_P2;Temp;Humidity;BMP_temperature;BMP_pressure;BME280_temperature;BME280_humidity;BME280_pressure;Samples;Min_cycle;Max_cycle;Signal;HPM_P1;HPM_P2
2024/04/18 00:00:14;0.00;0.00;0.62;0.00;0.00;0.62;2.87;1.87;;;23.50;21.60;;;;;;2052397;62;20462;-65
2024/04/18 00:03:02;0.00;0.00;0.62;0.00;0.00;0.62;2.07;1.47;;;23.50;21.60;;;;;;2053010;62;20471;-65
2024/04/18 00:05:49;0.00;0.00;0.62;0.00;0.00;0.62;2.20;1.57;;;23.50;21.60;;;;;;2052953;62;20454;-64
2024/04/18 00:08:39;0.00;0.00;0.62;0.00;0.00;0.62;2.57;1.77;;;23.50;21.60;;;;;;2052566;62;20479;-64
2024/04/18 00:11:42;0.00;0.00;0.62;0.00;0.00;0.62;2.30;1.60;;;23.50;21.60;;;;;;2053361;62;20540;-64
2024/04/18 00:14:29;0.00;0.00;0.62;0.00;0.00;0.62;2.93;2.13;;;23.50;21.60;;;;;;2051025;62;20462;-64
2024/04/18 00:17:34;0.00;0.00;0.62;0.00;0.00;0.62;2.27;1.80;;;23.50;21.60;;;;;;2053231;62;20470;-65
2024/04/18 00:20:42;0.00;0.00;0.62;0.00;0.00;0.62;1.60;1.30;;;23.50;21.60;;;;;;2052849;62;20466;-65
2024/04/18 00:23:36;0.00;0.00;0.62;0.00;0.00;0.62;2.23;1.73;;;23.40;21.60;;;;;;2052672;62;21016;-65
2024/04/18 00:26:27;0.00;0.00;0.62;0.00;0.00;0.62;2.20;1.40;;;23.40;21.60;;;;;;2053082;62;20504;-64
2024/04/18 00:29:21;0.00;0.00;0.62;0.00;0.00;0.62;4.40;1.70;;;23.40;21.60;;;;;;2052434;62;20453;-64
2024/04/18 00:32:06;0.00;0.00;0.62;0.00;0.00;0.62;2.97;1.77;;;23.40;21.60;;;;;;2048083;62;20473;-64
2024/04/18 00:34:54;0.00;0.00;0.62;0.00;0.00;0.62;2.30;1.70;;;23.40;21.60;;;;;;2048299;62;20920;-64
2024/04/18 00:37:55;0.00;0.00;0.62;0.00;0.00;0.62;2.30;1.80;;;23.40;21.60;;;;;;2048468;62;20521;-64
2024/04/18 00:40:58;0.00;0.00;0.62;0.00;0.00;0.62;3.10;1.67;;;23.40;21.60;;;;;;2053051;62;20501;-65
2024/04/18 00:43:44;0.00;0.00;0.62;0.00;0.00;0.62;2.00;1.40;;;23.40;21.60;;;;;;2052823;62;21117;-65
2024/04/18 00:46:49;0.00;0.00;0.62;0.00;0.00;0.62;4.73;1.60;;;23.40;21.60;;;;;;2053048;62;20462;-65
2024/04/18 00:49:49;0.00;0.00;0.62;0.00;0.00;0.62;2.10;1.50;;;23.40;21.60;;;;;;2052797;62;20455;-64
2024/04/18 00:52:34;0.00;0.00;0.62;0.00;0.00;0.62;2.03;1.83;;;23.40;21.60;;;;;;2051867;62;20482;-64
2024/04/18 00:55:22;0.00;0.00;0.62;0.00;0.00;0.62;3.53;1.87;;;23.40;21.60;;;;;;2053456;62;20458;-63
2024/04/18 00:58:26;0.00;0.00;0.62;0.00;0.00;0.62;2.80;2.07;;;23.40;21.60;;;;;;2050894;62;20474;-64
2024/04/18 01:01:32;0.00;0.00;0.62;0.00;0.00;0.62;2.10;1.50;;;23.40;21.60;;;;;;2052672;62;20536;-63
2024/04/18 01:04:16;0.00;0.00;0.62;0.00;0.00;0.62;2.30;1.50;;;23.40;21.60;;;;;;2053241;62;20889;-64
2024/04/18 01:07:01;0.00;0.00;0.62;0.00;0.00;0.62;2.20;1.70;;;23.30;21.50;;;;;;2052347;62;20479;-64
2024/04/18 01:10:04;0.00;0.00;0.62;0.00;0.00;0.62;2.10;1.60;;;23.40;21.60;;;;;;2053026;62;20462;-64
2024/04/18 01:12:58;0.00;0.00;0.62;0.00;0.00;0.62;2.57;2.00;;;23.30;21.50;;;;;;2053157;62;20467;-64
2024/04/18 01:16:03;0.00;0.00;0.62;0.00;0.00;0.62;2.30;1.70;;;23.30;21.50;;;;;;2052595;62;20532;-64
2024/04/18 01:18:48;0.00;0.00;0.62;0.00;0.00;0.62;2.23;1.40;;;23.30;21.50;;;;;;2053365;62;20454;-64
2024/04/18 01:21:33;0.00;0.00;0.62;0.00;0.00;0.62;2.00;1.50;;;23.30;21.50;;;;;;2050353;62;20462;-64
2024/04/18 01:24:18;0.00;0.00;0.62;0.00;0.00;0.62;2.50;1.90;;;23.30;21.50;;;;;;2053238;62;21008;-64
2024/04/18 01:27:05;0.00;0.00;0.62;0.00;0.00;0.62;2.30;1.67;;;23.30;21.50;;;;;;2052917;62;20466;-64
2024/04/18 01:30:00;0.00;0.00;0.62;0.00;0.00;0.62;1.90;1.40;;;23.30;21.50;;;;;;2052571;62;20928;-64
2024/04/18 01:32:57;0.00;0.00;0.62;0.00;0.00;0.62;2.10;1.40;;;23.30;21.50;;;;;;2053440;62;20556;-64
2024/04/18 01:35:41;0.00;0.00;0.62;0.00;0.00;0.62;1.83;1.33;;;23.30;22.00;;;;;;2052591;62;20529;-64
2024/04/18 01:38:37;0.00;0.00;0.62;0.00;0.00;0.62;2.47;1.60;;;23.30;21.50;;;;;;2053037;62;21035;-64
2024/04/18 01:41:42;0.00;0.00;0.62;0.00;0.00;0.62;2.03;1.40;;;23.30;21.50;;;;;;2052773;62;20492;-64
2024/04/18 01:44:51;0.00;0.00;0.62;0.00;0.00;0.62;2.50;1.70;;;23.30;21.50;;;;;;2050304;62;20496;-64
2024/04/18 01:47:55;0.00;0.00;0.62;0.00;0.00;0.62;1.93;1.40;;;23.30;21.50;;;;;;2053262;62;21007;-64
2024/04/18 01:50:58;0.00;0.00;0.62;0.00;0.00;0.62;3.40;1.90;;;23.30;21.50;;;;;;2052268;62;20528;-64
2024/04/18 01:53:52;0.00;0.00;0.62;0.00;0.00;0.62;2.77;1.93;;;23.30;21.50;;;;;;2053286;62;20495;-64
2024/04/18 01:56:36;0.00;0.00;0.62;0.00;0.00;0.62;1.70;1.60;;;23.30;21.50;;;;;;2052158;62;20499;-64
2024/04/18 01:59:39;0.00;0.00;0.62;0.00;0.00;0.62;2.77;1.80;;;23.30;21.50;;;;;;2052780;62;20531;-64
2024/04/18 02:02:26;0.00;0.00;0.62;0.00;0.00;0.62;2.50;1.70;;;23.30;21.50;;;;;;2053187;62;20631;-65
2024/04/18 02:05:26;0.00;0.00;0.62;0.00;0.00;0.62;2.10;1.53;;;23.30;22.00;;;;;;2051892;62;20469;-64
2024/04/18 02:08:31;0.00;0.00;0.62;0.00;0.00;0.62;2.00;1.60;;;23.30;21.50;;;;;;2053086;62;20459;-64
2024/04/18 02:11:16;0.00;0.00;0.62;0.00;0.00;0.62;2.43;1.70;;;23.30;21.50;;;;;;2052288;62;20463;-64
2024/04/18 02:14:21;0.00;0.00;0.62;0.00;0.00;0.62;4.23;1.80;;;23.30;21.50;;;;;;2053149;62;20458;-64
2024/04/18 02:17:05;0.00;0.00;0.62;0.00;0.00;0.62;1.80;1.40;;;23.30;21.40;;;;;;2053057;62;20520;-64
2024/04/18 02:19:52;0.00;0.00;0.62;0.00;0.00;0.62;2.70;1.70;;;23.30;21.40;;;;;;2052117;62;20536;-64
2024/04/18 02:22:57;0.00;0.00;0.62;0.00;0.00;0.62;2.40;1.40;;;23.30;21.40;;;;;;2053146;62;20482;-64
2024/04/18 02:26:01;0.00;0.00;0.62;0.00;0.00;0.62;1.80;1.57;;;23.30;21.40;;;;;;2052385;62;20890;-65
2024/04/18 02:28:45;0.00;0.00;0.62;0.00;0.00;0.62;3.50;1.73;;;23.30;21.40;;;;;;2052956;62;20466;-64
2024/04/18 02:31:36;0.00;0.00;0.62;0.00;0.00;0.62;2.13;1.80;;;23.30;21.40;;;;;;2053402;62;20946;-64
2024/04/18 02:34:41;0.00;0.00;0.62;0.00;0.00;0.62;2.27;1.60;;;23.30;21.40;;;;;;2052180;62;20536;-64
2024/04/18 02:37:47;0.00;0.00;0.62;0.00;0.00;0.62;2.87;1.73;;;23.30;21.40;;;;;;2053255;62;20897;-64
2024/04/18 02:40:31;0.00;0.00;0.62;0.00;0.00;0.62;1.97;1.30;;;23.30;21.40;;;;;;2052908;62;20470;-64
2024/04/18 02:43:19;0.00;0.00;0.62;0.00;0.00;0.62;2.70;1.67;;;23.30;21.40;;;;;;2047877;62;20468;-64
2024/04/18 02:46:04;0.00;0.00;0.62;0.00;0.00;0.62;2.50;1.60;;;23.20;21.30;;;;;;2043631;62;20472;-64
2024/04/18 02:48:49;0.00;0.00;0.62;0.00;0.00;0.62;2.00;1.50;;;23.20;21.30;;;;;;2048823;62;20470;-64
2024/04/18 02:51:43;0.00;0.00;0.62;0.00;0.00;0.62;3.33;1.90;;;23.20;21.30;;;;;;2052736;62;20548;-64
2024/04/18 02:54:33;0.00;0.00;0.62;0.00;0.00;0.62;2.03;1.43;;;23.20;21.30;;;;;;2053104;62;20545;-64
2024/04/18 02:57:18;0.00;0.00;0.62;0.00;0.00;0.62;2.40;1.60;;;23.30;21.40;;;;;;2052191;62;20923;-65
2024/04/18 03:00:03;0.00;0.00;0.62;0.00;0.00;0.62;2.03;1.20;;;23.20;21.30;;;;;;2052908;62;20528;-64
2024/04/18 03:02:48;0.00;0.00;0.62;0.00;0.00;0.62;2.90;1.80;;;23.20;21.30;;;;;;2053039;62;20490;-64
2024/04/18 03:05:33;0.00;0.00;0.62;0.00;0.00;0.62;2.10;1.47;;;23.20;21.30;;;;;;2047522;62;20455;-64
2024/04/18 03:08:18;0.00;0.00;0.62;0.00;0.00;0.62;2.00;1.50;;;23.20;21.30;;;;;;2047757;62;20460;-65
2024/04/18 03:11:05;0.00;0.00;0.62;0.00;0.00;0.62;2.43;1.40;;;23.20;21.30;;;;;;2048722;62;20489;-64
2024/04/18 03:13:53;0.00;0.00;0.62;0.00;0.00;0.62;2.23;1.40;;;23.20;21.30;;;;;;2052864;62;20490;-64
2024/04/18 03:16:49;0.00;0.00;0.62;0.00;0.00;0.62;2.53;1.60;;;23.20;21.30;;;;;;2052991;62;21017;-64
2024/04/18 03:19:36;0.00;0.00;0.62;0.00;0.00;0.62;2.00;1.30;;;23.20;21.30;;;;;;2051968;62;20526;-64
2024/04/18 03:22:41;0.00;0.00;0.62;0.00;0.00;0.62;2.57;1.53;;;23.20;21.30;;;;;;2052724;62;20482;-64
2024/04/18 03:25:26;0.00;0.00;0.62;0.00;0.00;0.62;1.97;1.20;;;23.20;21.30;;;;;;2052307;62;20505;-64
2024/04/18 03:28:23;0.00;0.00;0.62;0.00;0.00;0.62;2.20;1.50;;;23.20;21.30;;;;;;2052773;62;20459;-64
2024/04/18 03:31:07;0.00;0.00;0.62;0.00;0.00;0.62;2.27;1.10;;;23.20;21.30;;;;;;2052826;62;20520;-64
2024/04/18 03:33:52;0.00;0.00;0.62;0.00;0.00;0.62;2.17;1.50;;;23.10;21.30;;;;;;2052056;62;20467;-64
2024/04/18 03:36:41;0.00;0.00;0.62;0.00;0.00;0.62;1.77;1.30;;;23.10;21.30;;;;;;2052882;62;20470;-64
2024/04/18 03:39:46;0.00;0.00;0.62;0.00;0.00;0.62;1.73;1.17;;;23.10;21.30;;;;;;2052600;62;21040;-64
2024/04/18 03:42:30;0.00;0.00;0.62;0.00;0.00;0.62;2.50;1.40;;;23.10;21.30;;;;;;2052691;62;20548;-65
2024/04/18 03:45:18;0.00;0.00;0.62;0.00;0.00;0.62;2.23;1.47;;;23.10;21.30;;;;;;2052605;62;20459;-65
2024/04/18 03:48:04;0.00;0.00;0.62;0.00;0.00;0.62;1.83;1.40;;;23.10;21.30;;;;;;2051963;62;20511;-64
2024/04/18 03:51:01;0.00;0.00;0.62;0.00;0.00;0.62;2.00;1.37;;;23.10;21.30;;;;;;2052622;62;20519;-64
2024/04/18 03:54:05;0.00;0.00;0.62;0.00;0.00;0.62;1.90;1.30;;;23.10;21.30;;;;;;2053127;62;21024;-65
2024/04/18 03:57:09;0.00;0.00;0.62;0.00;0.00;0.62;2.13;1.90;;;23.10;21.30;;;;;;2052540;62;20459;-65
2024/04/18 03:59:53;0.00;0.00;0.62;0.00;0.00;0.62;1.83;1.50;;;23.10;21.30;;;;;;2052652;62;20467;-64
2024/04/18 04:02:40;0.00;0.00;0.62;0.00;0.00;0.62;2.10;1.40;;;23.00;21.20;;;;;;2051611;62;20479;-64
2024/04/18 04:05:25;0.00;0.00;0.62;0.00;0.00;0.62;2.10;1.30;;;23.10;21.30;;;;;;2052637;62;20462;-65
2024/04/18 04:08:10;0.00;0.00;0.62;0.00;0.00;0.62;1.80;1.33;;;23.00;21.20;;;;;;2052766;62;20511;-64
2024/04/18 04:10:56;0.00;0.00;0.62;0.00;0.00;0.62;2.13;1.33;;;23.10;21.30;;;;;;2051689;62;21016;-65
2024/04/18 04:13:41;0.00;0.00;0.62;0.00;0.00;0.62;2.10;1.37;;;23.00;21.20;;;;;;2052812;62;20471;-65
2024/04/18 04:16:35;0.00;0.00;0.62;0.00;0.00;0.62;2.00;1.30;;;23.00;21.20;;;;;;2052754;62;20466;-64
2024/04/18 04:19:48;0.00;0.00;0.62;0.00;0.00;0.62;1.90;1.40;;;23.00;21.20;;;;;;2046539;62;20451;-64
2024/04/18 04:22:33;0.00;0.00;0.62;0.00;0.00;0.62;2.40;1.63;;;23.00;21.20;;;;;;2048152;62;20505;-64
2024/04/18 04:25:37;0.00;0.00;0.62;0.00;0.00;0.62;2.30;1.50;;;23.00;21.20;;;;;;2049985;62;20524;-65
2024/04/18 04:28:22;0.00;0.00;0.62;0.00;0.00;0.62;1.87;1.40;;;23.00;21.20;;;;;;2053167;62;20501;-64
2024/04/18 04:31:06;0.00;0.00;0.62;0.00;0.00;0.62;3.20;1.20;;;23.00;21.20;;;;;;2053391;62;20908;-64
2024/04/18 04:33:51;0.00;0.00;0.62;0.00;0.00;0.62;1.90;1.20;;;23.00;21.30;;;;;;2050404;62;20478;-65
2024/04/18 04:36:38;0.00;0.00;0.62;0.00;0.00;0.62;1.70;1.10;;;23.00;21.20;;;;;;2053503;62;20559;-64
2024/04/18 04:39:23;0.00;0.00;0.62;0.00;0.00;0.62;1.97;1.43;;;23.00;21.30;;;;;;2052360;62;20450;-64
2024/04/18 04:42:27;0.00;0.00;0.62;0.00;0.00;0.62;2.03;1.33;;;22.90;21.20;;;;;;2053283;62;21089;-64
2024/04/18 04:45:12;0.00;0.00;0.62;0.00;0.00;0.62;2.20;1.33;;;22.90;21.20;;;;;;2053373;62;20475;-64
2024/04/18 04:47:57;0.00;0.00;0.62;0.00;0.00;0.62;2.00;1.30;;;23.00;21.30;;;;;;2052157;62;20471;-65
2024/04/18 04:50:43;0.00;0.00;0.62;0.00;0.00;0.62;2.37;1.43;;;22.90;21.20;;;;;;2051783;62;20935;-65
2024/04/18 04:53:34;0.00;0.00;0.62;0.00;0.00;0.62;2.30;1.17;;;22.90;21.20;;;;;;2053177;62;20948;-65
2024/04/18 04:56:19;0.00;0.00;0.62;0.00;0.00;0.62;3.23;1.43;;;22.90;21.20;;;;;;2052272;62;20501;-64
2024/04/18 04:59:23;0.00;0.00;0.62;0.00;0.00;0.62;1.60;1.00;;;22.90;21.20;;;;;;2053183;62;20591;-64
2024/04/18 05:02:08;0.00;0.00;0.62;0.00;0.00;0.62;2.27;1.20;;;22.90;21.20;;;;;;2048320;62;21028;-64
2024/04/18 05:05:06;0.00;0.00;0.62;0.00;0.00;0.62;1.80;1.30;;;22.90;21.20;;;;;;2053386;62;20505;-64
2024/04/18 05:07:51;0.00;0.00;0.62;0.00;0.00;0.62;1.90;1.30;;;22.90;21.20;;;;;;2052982;62;20528;-64
2024/04/18 05:10:58;0.00;0.00;0.62;0.00;0.00;0.62;2.27;1.40;;;22.90;21.20;;;;;;2052023;62;20474;-65
2024/04/18 05:13:42;0.00;0.00;0.62;0.00;0.00;0.62;1.90;1.10;;;22.90;21.30;;;;;;2053220;62;20508;-64
2024/04/18 05:16:36;0.00;0.00;0.62;0.00;0.00;0.62;2.30;1.50;;;22.90;21.30;;;;;;2048394;62;20535;-64
2024/04/18 05:19:29;0.00;0.00;0.62;0.00;0.00;0.62;2.50;1.63;;;22.90;21.30;;;;;;2052789;62;20463;-64
2024/04/18 05:22:14;0.00;0.00;0.62;0.00;0.00;0.62;2.10;1.43;;;22.90;21.30;;;;;;2052968;62;20569;-64
2024/04/18 05:24:59;0.00;0.00;0.62;0.00;0.00;0.62;5.27;1.87;;;22.90;21.30;;;;;;2052265;62;20467;-64
2024/04/18 05:27:55;0.00;0.00;0.62;0.00;0.00;0.62;4.00;1.77;;;22.90;21.30;;;;;;2053031;62;20475;-64
2024/04/18 05:31:01;0.00;0.00;0.62;0.00;0.00;0.62;2.77;1.97;;;22.90;21.30;;;;;;2053075;62;20463;-64
2024/04/18 05:33:45;0.00;0.00;0.62;0.00;0.00;0.62;2.83;2.00;;;22.90;21.30;;;;;;2053045;62;21039;-64
2024/04/18 05:36:30;0.00;0.00;0.62;0.00;0.00;0.62;2.57;1.90;;;22.90;21.30;;;;;;2053303;62;20493;-64
2024/04/18 05:39:21;0.00;0.00;0.62;0.00;0.00;0.62;2.60;1.90;;;22.90;21.30;;;;;;2052399;62;20471;-64
2024/04/18 05:42:06;0.00;0.00;0.62;0.00;0.00;0.62;2.97;2.17;;;22.90;21.30;;;;;;2053246;62;20925;-64
2024/04/18 05:44:54;0.00;0.00;0.62;0.00;0.00;0.62;3.97;2.90;;;22.90;21.30;;;;;;2053287;62;20463;-64
2024/04/18 05:47:38;0.00;0.00;0.62;0.00;0.00;0.62;4.40;2.50;;;22.80;21.20;;;;;;2052294;62;21063;-64
2024/04/18 05:50:24;0.00;0.00;0.62;0.00;0.00;0.62;3.67;2.80;;;22.80;21.20;;;;;;2052794;62;20462;-64
2024/04/18 05:53:09;0.00;0.00;0.62;0.00;0.00;0.62;3.93;3.20;;;22.90;21.30;;;;;;2052440;62;20466;-65
2024/04/18 05:56:12;0.00;0.00;0.62;0.00;0.00;0.62;4.03;3.10;;;22.90;21.30;;;;;;2053088;62;20750;-64
2024/04/18 05:58:56;0.00;0.00;0.62;0.00;0.00;0.62;3.87;3.00;;;22.90;21.30;;;;;;2052931;62;20531;-65
2024/04/18 06:01:44;0.00;0.00;0.62;0.00;0.00;0.62;4.10;2.97;;;22.90;21.40;;;;;;2052397;62;20535;-64
2024/04/18 06:04:28;0.00;0.00;0.62;0.00;0.00;0.62;3.93;3.17;;;22.80;21.20;;;;;;2053401;62;20467;-64
2024/04/18 06:07:48;0.00;0.00;0.62;0.00;0.00;0.62;5.27;3.73;;;22.80;21.30;;;;;;2051590;62;21000;-65
2024/04/18 06:10:33;0.00;0.00;0.62;0.00;0.00;0.62;5.33;4.10;;;22.80;21.30;;;;;;2052729;62;20470;-64
2024/04/18 06:13:38;0.00;0.00;0.62;0.00;0.00;0.62;5.90;4.80;;;22.80;21.30;;;;;;2052843;62;21024;-65
2024/04/18 06:16:23;0.00;0.00;0.62;0.00;0.00;0.62;6.73;5.10;;;22.80;21.30;;;;;;2052445;62;20501;-64
2024/04/18 06:19:10;0.00;0.00;0.62;0.00;0.00;0.62;5.53;4.80;;;22.80;21.30;;;;;;2052963;62;20475;-64
2024/04/18 06:21:55;0.00;0.00;0.62;0.00;0.00;0.62;6.37;5.17;;;22.80;21.30;;;;;;2052971;62;20540;-64
2024/04/18 06:24:41;0.00;0.00;0.62;0.00;0.00;0.62;7.50;5.50;;;22.80;21.30;;;;;;2051887;62;20537;-64
2024/04/18 06:27:40;0.00;0.00;0.62;0.00;0.00;0.62;6.50;5.37;;;22.80;21.30;;;;;;2052732;62;20455;-64
2024/04/18 06:30:25;0.00;0.00;0.62;0.00;0.00;0.62;8.00;6.10;;;22.80;21.30;;;;;;2052192;62;20475;-64
2024/04/18 06:33:10;0.00;0.00;0.62;0.00;0.00;0.62;7.63;6.20;;;22.80;21.30;;;;;;2052970;62;20475;-64
2024/04/18 06:36:01;0.00;0.00;0.62;0.00;0.00;0.62;8.90;5.63;;;22.80;21.40;;;;;;2048934;62;20458;-65
2024/04/18 06:38:46;0.00;0.00;0.62;0.00;0.00;0.62;9.03;6.10;;;22.80;21.40;;;;;;2052183;62;20474;-64
2024/04/18 06:41:31;0.00;0.00;0.62;0.00;0.00;0.62;10.93;7.63;;;22.90;21.50;;;;;;2052521;62;20450;-64
2024/04/18 06:44:16;0.00;0.00;0.62;0.00;0.00;0.62;8.53;7.27;;;22.80;21.40;;;;;;2053170;62;20536;-64
2024/04/18 06:47:00;0.00;0.00;0.62;0.00;0.00;0.62;8.27;6.80;;;22.80;21.40;;;;;;2051725;62;20503;-64
2024/04/18 06:49:45;0.00;0.00;0.62;0.00;0.00;0.62;9.67;8.00;;;22.80;21.40;;;;;;2052756;62;20459;-64
2024/04/18 06:52:32;0.00;0.00;0.62;0.00;0.00;0.62;10.40;8.00;;;22.90;21.50;;;;;;2052302;62;21016;-64
2024/04/18 06:55:17;0.00;0.00;0.62;0.00;0.00;0.62;10.43;7.50;;;22.80;21.40;;;;;;2052903;62;20548;-64
2024/04/18 06:58:02;0.00;0.00;0.62;0.00;0.00;0.62;9.73;7.77;;;22.80;21.40;;;;;;2052770;62;20488;-64
2024/04/18 07:00:47;0.00;0.00;0.62;0.00;0.00;0.62;8.97;7.73;;;22.90;21.50;;;;;;2052131;62;20475;-64
2024/04/18 07:03:32;0.00;0.00;0.62;0.00;0.00;0.62;12.63;8.73;;;22.80;21.40;;;;;;2052753;62;20482;-64
2024/04/18 07:06:17;0.00;0.00;0.62;0.00;0.00;0.62;11.63;8.50;;;22.80;21.40;;;;;;2052928;62;20532;-65
2024/04/18 07:09:22;0.00;0.00;0.62;0.00;0.00;0.62;11.77;8.30;;;22.90;21.50;;;;;;2051804;62;20515;-64
2024/04/18 07:12:08;0.00;0.00;0.62;0.00;0.00;0.62;10.83;8.97;;;22.90;21.50;;;;;;2052752;62;20496;-64
2024/04/18 07:14:53;0.00;0.00;0.62;0.00;0.00;0.62;10.33;8.20;;;22.90;21.60;;;;;;2048144;62;20462;-64
2024/04/18 07:17:57;0.00;0.00;0.62;0.00;0.00;0.62;11.27;9.97;;;22.90;21.50;;;;;;2052618;62;20470;-64
2024/04/18 07:20:42;0.00;0.00;0.62;0.00;0.00;0.62;12.57;9.40;;;22.90;21.50;;;;;;2052664;62;20462;-64
2024/04/18 07:23:27;0.00;0.00;0.62;0.00;0.00;0.62;11.03;8.93;;;22.90;21.60;;;;;;2051753;62;20471;-64
2024/04/18 07:26:23;0.00;0.00;0.62;0.00;0.00;0.62;10.80;9.10;;;22.90;21.60;;;;;;2052578;62;20546;-64
2024/04/18 07:29:07;0.00;0.00;0.62;0.00;0.00;0.62;12.63;9.23;;;22.90;21.60;;;;;;2052407;62;20470;-64
2024/04/18 07:31:52;0.00;0.00;0.62;0.00;0.00;0.62;11.87;9.23;;;22.90;21.60;;;;;;2047470;62;20539;-65
2024/04/18 07:34:36;0.00;0.00;0.62;0.00;0.00;0.62;9.60;8.43;;;22.90;21.60;;;;;;2047747;62;20467;-64
2024/04/18 07:37:27;0.00;0.00;0.62;0.00;0.00;0.62;11.13;9.10;;;22.90;21.60;;;;;;2048640;62;20520;-65
2024/04/18 07:40:15;0.00;0.00;0.62;0.00;0.00;0.62;11.67;8.70;;;22.90;21.60;;;;;;2052501;62;20692;-64
2024/04/18 07:43:02;0.00;0.00;0.62;0.00;0.00;0.62;9.87;8.30;;;22.90;21.60;;;;;;2048580;62;20495;-64
2024/04/18 07:45:47;0.00;0.00;0.62;0.00;0.00;0.62;10.30;8.30;;;22.90;21.60;;;;;;2052024;62;20862;-64
2024/04/18 07:48:32;0.00;0.00;0.62;0.00;0.00;0.62;10.80;8.87;;;22.90;21.60;;;;;;2052666;62;20454;-64
2024/04/18 07:51:17;0.00;0.00;0.62;0.00;0.00;0.62;10.17;8.47;;;22.90;21.60;;;;;;2052505;62;20878;-64
2024/04/18 07:54:01;0.00;0.00;0.62;0.00;0.00;0.62;10.80;8.60;;;22.90;21.60;;;;;;2053075;62;20863;-64
2024/04/18 07:56:46;0.00;0.00;0.62;0.00;0.00;0.62;11.23;9.00;;;22.90;21.60;;;;;;2053253;62;20463;-65
2024/04/18 07:59:33;0.00;0.00;0.62;0.00;0.00;0.62;10.23;8.60;;;22.90;21.60;;;;;;2052218;62;20523;-65
2024/04/18 08:02:18;0.00;0.00;0.62;0.00;0.00;0.62;11.67;9.57;;;22.90;21.60;;;;;;2052909;62;20879;-64
2024/04/18 08:05:03;0.00;0.00;0.62;0.00;0.00;0.62;8.40;7.60;;;22.90;21.60;;;;;;2053214;62;20455;-64
2024/04/18 08:07:49;0.00;0.00;0.62;0.00;0.00;0.62;9.50;8.00;;;22.90;21.60;;;;;;2052052;62;20959;-64
2024/04/18 08:10:33;0.00;0.00;0.62;0.00;0.00;0.62;9.53;8.33;;;22.90;21.60;;;;;;2051691;54;21000;-64
2024/04/18 08:13:17;0.00;0.00;0.62;0.00;0.00;0.62;10.30;8.70;;;22.90;21.50;;;;;;2053128;62;21036;-64
2024/04/18 08:16:06;0.00;0.00;0.62;0.00;0.00;0.62;9.67;8.10;;;22.90;21.60;;;;;;2052393;62;20501;-64
2024/04/18 08:18:51;0.00;0.00;0.62;0.00;0.00;0.62;10.30;7.53;;;22.90;21.60;;;;;;2053311;62;20500;-64
2024/04/18 08:21:35;0.00;0.00;0.62;0.00;0.00;0.62;9.20;7.57;;;22.90;21.60;;;;;;2052168;62;20459;-64
2024/04/18 08:24:27;0.00;0.00;0.62;0.00;0.00;0.62;10.73;8.73;;;22.90;21.60;;;;;;2052925;62;20890;-64
2024/04/18 08:27:23;0.00;0.00;0.62;0.00;0.00;0.62;7.43;6.60;;;22.90;21.60;;;;;;2049337;62;20465;-64
2024/04/18 08:30:10;0.00;0.00;0.62;0.00;0.00;0.62;9.40;7.80;;;22.90;21.60;;;;;;2052098;62;20470;-64
2024/04/18 08:32:57;0.00;0.00;0.62;0.00;0.00;0.62;8.87;6.70;;;22.90;21.60;;;;;;2052857;62;20471;-64
2024/04/18 08:35:44;0.00;0.00;0.62;0.00;0.00;0.62;7.20;6.47;;;22.90;21.50;;;;;;2053116;62;20466;-64
2024/04/18 08:38:28;0.00;0.00;0.62;0.00;0.00;0.62;8.40;6.23;;;22.90;21.50;;;;;;2052990;62;20458;-65
2024/04/18 08:41:14;0.00;0.00;0.62;0.00;0.00;0.62;7.43;5.23;;;22.90;21.50;;;;;;2052592;62;20526;-64
2024/04/18 08:44:02;0.00;0.00;0.62;0.00;0.00;0.62;6.97;6.27;;;22.90;21.50;;;;;;2047981;62;20479;-65
2024/04/18 08:46:47;0.00;0.00;0.62;0.00;0.00;0.62;7.10;5.60;;;22.90;21.50;;;;;;2052625;62;20478;-65
2024/04/18 08:49:37;0.00;0.00;0.62;0.00;0.00;0.62;8.37;6.30;;;22.90;21.50;;;;;;2052655;62;20535;-65
2024/04/18 08:52:22;0.00;0.00;0.62;0.00;0.00;0.62;7.70;5.40;;;22.90;21.50;;;;;;2050999;62;20479;-65
2024/04/18 08:55:07;0.00;0.00;0.62;0.00;0.00;0.62;6.60;5.63;;;22.90;21.50;;;;;;2053067;62;20459;-65
2024/04/18 08:58:01;0.00;0.00;0.62;0.00;0.00;0.62;6.70;5.43;;;22.90;21.50;;;;;;2053011;62;20459;-65
2024/04/18 09:00:46;0.00;0.00;0.62;0.00;0.00;0.62;6.37;4.90;;;22.90;21.50;;;;;;2047573;62;20550;-64
2024/04/18 09:03:31;0.00;0.00;0.62;0.00;0.00;0.62;6.73;5.60;;;23.00;21.60;;;;;;2047882;62;20484;-64
2024/04/18 09:06:18;0.00;0.00;0.62;0.00;0.00;0.62;5.90;5.10;;;22.90;21.50;;;;;;2048431;62;20544;-64
2024/04/18 09:09:13;0.00;0.00;0.62;0.00;0.00;0.62;5.53;4.53;;;22.90;21.50;;;;;;2052683;62;20899;-64
2024/04/18 09:11:59;0.00;0.00;0.62;0.00;0.00;0.62;5.67;4.63;;;23.00;21.60;;;;;;2052981;62;20459;-65
2024/04/18 09:14:44;0.00;0.00;0.62;0.00;0.00;0.62;6.00;5.07;;;22.90;21.50;;;;;;2051976;62;20474;-64
2024/04/18 09:17:28;0.00;0.00;0.62;0.00;0.00;0.62;5.13;4.43;;;23.00;21.60;;;;;;2052983;62;20467;-65
2024/04/18 09:20:13;0.00;0.00;0.62;0.00;0.00;0.62;4.90;4.03;;;23.00;22.10;;;;;;2052756;62;20466;-65
2024/04/18 09:23:00;0.00;0.00;0.62;0.00;0.00;0.62;5.53;4.10;;;23.00;21.50;;;;;;2052794;62;20503;-65
2024/04/18 09:25:45;0.00;0.00;0.62;0.00;0.00;0.62;5.90;4.40;;;23.00;21.50;;;;;;2048847;62;20524;-64
2024/04/18 09:28:30;0.00;0.00;0.62;0.00;0.00;0.62;4.50;3.90;;;23.00;21.50;;;;;;2052246;62;20910;-64
2024/04/18 09:31:18;0.00;0.00;0.62;0.00;0.00;0.62;5.43;4.20;;;23.00;21.50;;;;;;2052520;62;20458;-65
2024/04/18 09:34:03;0.00;0.00;0.62;0.00;0.00;0.62;5.20;4.30;;;23.00;21.50;;;;;;2053013;62;21003;-65
2024/04/18 09:36:48;0.00;0.00;0.62;0.00;0.00;0.62;5.53;3.93;;;23.00;21.50;;;;;;2052013;62;20478;-65
2024/04/18 09:39:37;0.00;0.00;0.62;0.00;0.00;0.62;5.10;4.10;;;23.00;21.40;;;;;;2052619;62;20466;-64
2024/04/18 09:42:42;0.00;0.00;0.62;0.00;0.00;0.62;3.50;3.13;;;23.00;21.40;;;;;;2053053;62;20479;-65
2024/04/18 09:45:50;0.00;0.00;0.62;0.00;0.00;0.62;4.60;3.23;;;23.00;21.40;;;;;;2052843;62;20463;-65
2024/04/18 09:48:35;0.00;0.00;0.62;0.00;0.00;0.62;5.17;3.57;;;23.00;21.40;;;;;;2051494;62;20471;-64
2024/04/18 09:51:21;0.00;0.00;0.62;0.00;0.00;0.62;3.83;3.10;;;23.00;21.40;;;;;;2052192;62;20934;-65
2024/04/18 09:54:07;0.00;0.00;0.62;0.00;0.00;0.62;5.57;4.00;;;23.00;21.40;;;;;;2052797;62;20458;-65
2024/04/18 09:56:54;0.00;0.00;0.62;0.00;0.00;0.62;4.83;3.30;;;23.00;21.40;;;;;;2053063;62;20505;-65
2024/04/18 09:59:40;0.00;0.00;0.62;0.00;0.00;0.62;5.50;4.03;;;23.00;21.40;;;;;;2052000;62;20543;-65
2024/04/18 10:02:28;0.00;0.00;0.62;0.00;0.00;0.62;5.30;3.63;;;23.00;21.40;;;;;;2048909;62;20863;-65
2024/04/18 10:05:14;0.00;0.00;0.62;0.00;0.00;0.62;5.27;3.30;;;23.10;21.50;;;;;;2052375;62;20547;-65
2024/04/18 10:08:00;0.00;0.00;0.62;0.00;0.00;0.62;5.37;3.30;;;23.10;22.00;;;;;;2052719;62;20517;-65
2024/04/18 10:10:46;0.00;0.00;0.62;0.00;0.00;0.62;4.13;2.57;;;23.10;21.50;;;;;;2052715;62;20512;-65
2024/04/18 10:13:35;0.00;0.00;0.62;0.00;0.00;0.62;4.07;3.40;;;23.10;21.50;;;;;;2050198;62;21035;-65
2024/04/18 10:16:20;0.00;0.00;0.62;0.00;0.00;0.62;4.40;3.27;;;23.10;21.40;;;;;;2053403;62;20458;-65
2024/04/18 10:19:10;0.00;0.00;0.62;0.00;0.00;0.62;3.93;3.10;;;23.10;21.40;;;;;;2052764;62;20913;-65
2024/04/18 10:21:56;0.00;0.00;0.62;0.00;0.00;0.62;4.50;3.10;;;23.10;21.40;;;;;;2052373;62;20470;-65
2024/04/18 10:24:41;0.00;0.00;0.62;0.00;0.00;0.62;4.30;3.60;;;23.10;21.40;;;;;;2049136;62;20583;-65
2024/04/18 10:27:26;0.00;0.00;0.62;0.00;0.00;0.62;4.80;3.60;;;23.10;21.40;;;;;;2052472;54;20543;-65
2024/04/18 10:30:16;0.00;0.00;0.62;0.00;0.00;0.62;3.60;3.07;;;23.10;21.90;;;;;;2052804;62;20856;-65
2024/04/18 10:33:01;0.00;0.00;0.62;0.00;0.00;0.62;4.10;3.33;;;23.10;21.40;;;;;;2053250;62;20474;-65
2024/04/18 10:35:45;0.00;0.00;0.62;0.00;0.00;0.62;3.53;2.70;;;23.20;21.40;;;;;;2052134;62;21007;-65
2024/04/18 10:38:33;0.00;0.00;0.62;0.00;0.00;0.62;3.47;2.60;;;23.20;21.40;;;;;;2052980;62;20509;-64
2024/04/18 10:41:24;0.00;0.00;0.62;0.00;0.00;0.62;4.50;2.87;;;23.20;21.40;;;;;;2052902;62;20557;-64
2024/04/18 10:44:09;0.00;0.00;0.62;0.00;0.00;0.62;4.13;3.27;;;23.20;21.40;;;;;;2052209;62;20483;-64
2024/04/18 10:46:57;0.00;0.00;0.62;0.00;0.00;0.62;4.17;3.10;;;23.20;21.40;;;;;;2052913;62;20504;-64
2024/04/18 10:49:41;0.00;0.00;0.62;0.00;0.00;0.62;3.53;2.70;;;23.20;21.50;;;;;;2052051;62;20533;-65
2024/04/18 10:52:28;0.00;0.00;0.62;0.00;0.00;0.62;4.20;3.00;;;23.20;21.50;;;;;;2052818;62;20486;-65
2024/04/18 10:55:13;0.00;0.00;0.62;0.00;0.00;0.62;4.13;2.50;;;23.20;21.40;;;;;;2053030;62;20535;-65
2024/04/18 10:57:57;0.00;0.00;0.62;0.00;0.00;0.62;2.90;2.40;;;23.20;21.40;;;;;;2052014;62;20463;-64
2024/04/18 11:00:43;0.00;0.00;0.62;0.00;0.00;0.62;4.53;3.17;;;23.20;21.40;;;;;;2052700;62;20462;-66
2024/04/18 11:03:31;0.00;0.00;0.62;0.00;0.00;0.62;5.83;2.90;;;23.20;21.40;;;;;;2052990;62;20467;-65
2024/04/18 11:06:15;0.00;0.00;0.62;0.00;0.00;0.62;4.07;2.43;;;23.30;21.40;;;;;;2051966;62;20915;-64
2024/04/18 11:09:00;0.00;0.00;0.62;0.00;0.00;0.62;3.10;2.57;;;23.30;21.40;;;;;;2052815;62;20467;-64